FIN67G LJLJ-EFHK
Flight info
| Callsign | FIN67G |
|---|---|
| Flight time | N/A |
| Altitude | 35000 |
| Route | MODRO1Z MODRO DCT LAPNA DCT ABLOM DCT VAPUS DCT SKARY DCT KOTEK DCT BULEP DCT BOKSU DCT INBOV DCT GUNTA DCT SOKVA DCT ANAMA DCT KEMET Q11 INTOR |
| Aircraft | A321/M-SDE3FGHIRWY/LB1 |
Departure
| Time | 2026-05-01 14:20 |
|---|---|
| Airport | Ljubljana Jože Pučnik Airport (LJLJ) |
Arrival
| Time | N/A |
|---|---|
| Airport | Helsinki Vantaa Airport (EFHK) |
| Time | Latitude | Longitude | Altitude | Speed | Heading |
|---|---|---|---|---|---|
| 2026-05-01 13:49 | 46.23048 | 14.45369 | 1233 ft | 0 kts | 36° |
| 2026-05-01 14:09 | 46.23043 | 14.45363 | 1258 ft | 4 kts | 37° |
| 2026-05-01 14:09 | 46.23023 | 14.45338 | 1269 ft | 4 kts | 53° |
| 2026-05-01 14:10 | 46.23012 | 14.45306 | 1269 ft | 4 kts | 95° |
| 2026-05-01 14:10 | 46.23015 | 14.45289 | 1267 ft | 0 kts | 126° |
| 2026-05-01 14:15 | 46.22994 | 14.45330 | 1264 ft | 13 kts | 126° |
| 2026-05-01 14:16 | 46.22919 | 14.45394 | 1265 ft | 13 kts | 205° |
| 2026-05-01 14:16 | 46.22844 | 14.45338 | 1259 ft | 12 kts | 179° |
| 2026-05-01 14:16 | 46.22766 | 14.45447 | 1261 ft | 27 kts | 126° |
| 2026-05-01 14:16 | 46.22607 | 14.45765 | 1256 ft | 51 kts | 127° |
| 2026-05-01 14:17 | 46.22355 | 14.46245 | 1249 ft | 67 kts | 128° |
| 2026-05-01 14:17 | 46.22119 | 14.46689 | 1232 ft | 44 kts | 125° |
| 2026-05-01 14:17 | 46.21948 | 14.47044 | 1223 ft | 41 kts | 126° |
| 2026-05-01 14:17 | 46.21803 | 14.47324 | 1213 ft | 26 kts | 127° |
| 2026-05-01 14:18 | 46.21706 | 14.47379 | 1210 ft | 15 kts | 216° |
| 2026-05-01 14:18 | 46.21628 | 14.47290 | 1210 ft | 14 kts | 224° |
| 2026-05-01 14:18 | 46.21637 | 14.47192 | 1213 ft | 4 kts | 303° |
| 2026-05-01 14:18 | 46.21637 | 14.47191 | 1213 ft | 0 kts | 303° |
| 2026-05-01 14:19 | 46.21796 | 14.46872 | 1223 ft | 72 kts | 307° |
| 2026-05-01 14:19 | 46.22204 | 14.46066 | 1244 ft | 124 kts | 307° |
| 2026-05-01 14:19 | 46.22810 | 14.44892 | 1270 ft | 164 kts | 306° |
| 2026-05-01 14:19 | 46.23506 | 14.43527 | 1674 ft | 164 kts | 307° |
| 2026-05-01 14:20 | 46.24060 | 14.42206 | 2407 ft | 151 kts | 286° |
| 2026-05-01 14:20 | 46.23502 | 14.39208 | 3467 ft | 182 kts | 223° |
| 2026-05-01 14:20 | 46.22337 | 14.38308 | 4028 ft | 204 kts | 185° |
| 2026-05-01 14:21 | 46.20858 | 14.38179 | 4655 ft | 225 kts | 180° |
| 2026-05-01 14:21 | 46.19263 | 14.38053 | 5568 ft | 232 kts | 182° |
| 2026-05-01 14:21 | 46.17624 | 14.37900 | 6164 ft | 239 kts | 182° |
| 2026-05-01 14:22 | 46.14265 | 14.37563 | 7502 ft | 245 kts | 181° |
| 2026-05-01 14:22 | 46.12542 | 14.37392 | 8138 ft | 249 kts | 181° |
| 2026-05-01 14:22 | 46.10825 | 14.37607 | 8725 ft | 247 kts | 154° |
| 2026-05-01 14:22 | 46.09463 | 14.38961 | 9293 ft | 240 kts | 122° |
| 2026-05-01 14:23 | 46.08757 | 14.41095 | 9748 ft | 240 kts | 93° |
| 2026-05-01 14:23 | 46.08913 | 14.43517 | 9961 ft | 252 kts | 64° |
| 2026-05-01 14:23 | 46.09803 | 14.45786 | 10213 ft | 270 kts | 56° |
| 2026-05-01 14:23 | 46.10832 | 14.48191 | 10334 ft | 293 kts | 57° |
| 2026-05-01 14:24 | 46.11939 | 14.50787 | 10462 ft | 314 kts | 57° |
| 2026-05-01 14:24 | 46.13110 | 14.53557 | 10585 ft | 333 kts | 57° |
| 2026-05-01 14:24 | 46.14322 | 14.56448 | 10818 ft | 347 kts | 57° |
| 2026-05-01 14:24 | 46.15572 | 14.59450 | 11349 ft | 350 kts | 57° |
| 2026-05-01 14:25 | 46.16830 | 14.62478 | 11917 ft | 353 kts | 57° |
| 2026-05-01 14:25 | 46.18100 | 14.65539 | 12476 ft | 356 kts | 57° |
| 2026-05-01 14:25 | 46.19374 | 14.68611 | 13082 ft | 357 kts | 57° |
| 2026-05-01 14:25 | 46.20656 | 14.71696 | 13656 ft | 359 kts | 57° |
| 2026-05-01 14:26 | 46.21950 | 14.74812 | 14196 ft | 362 kts | 57° |
| 2026-05-01 14:26 | 46.24548 | 14.81073 | 15097 ft | 364 kts | 57° |
| 2026-05-01 14:26 | 46.25851 | 14.84222 | 15500 ft | 367 kts | 57° |
| 2026-05-01 14:27 | 46.27166 | 14.87398 | 15899 ft | 370 kts | 57° |
| 2026-05-01 14:27 | 46.28471 | 14.90565 | 16326 ft | 372 kts | 57° |
| 2026-05-01 14:27 | 46.29801 | 14.93797 | 16735 ft | 375 kts | 57° |
| 2026-05-01 14:28 | 46.32487 | 15.00315 | 17541 ft | 379 kts | 57° |
| 2026-05-01 14:28 | 46.33843 | 15.03607 | 17986 ft | 381 kts | 58° |
| 2026-05-01 14:28 | 46.35201 | 15.06917 | 18450 ft | 383 kts | 57° |
| 2026-05-01 14:28 | 46.36568 | 15.10256 | 18836 ft | 386 kts | 57° |
| 2026-05-01 14:29 | 46.37940 | 15.13609 | 19230 ft | 387 kts | 57° |
| 2026-05-01 14:29 | 46.39313 | 15.16966 | 19645 ft | 389 kts | 57° |
| 2026-05-01 14:30 | 46.43450 | 15.27122 | 20825 ft | 393 kts | 57° |
| 2026-05-01 14:30 | 46.44845 | 15.30544 | 21206 ft | 394 kts | 58° |
| 2026-05-01 14:30 | 46.46243 | 15.33974 | 21609 ft | 396 kts | 58° |
| 2026-05-01 14:31 | 46.49058 | 15.40910 | 22377 ft | 400 kts | 58° |
| 2026-05-01 14:31 | 46.50468 | 15.44395 | 22781 ft | 401 kts | 58° |
| 2026-05-01 14:31 | 46.51874 | 15.47857 | 23129 ft | 404 kts | 56° |
| 2026-05-01 14:31 | 46.53541 | 15.51131 | 23538 ft | 404 kts | 48° |
| 2026-05-01 14:32 | 46.55575 | 15.53966 | 23918 ft | 405 kts | 39° |
| 2026-05-01 14:32 | 46.57121 | 15.55588 | 24117 ft | 407 kts | 35° |
| 2026-05-01 14:32 | 46.60240 | 15.58648 | 24519 ft | 409 kts | 35° |
| 2026-05-01 14:32 | 46.62597 | 15.60969 | 24820 ft | 410 kts | 35° |
| 2026-05-01 14:33 | 46.64963 | 15.63309 | 25094 ft | 412 kts | 35° |
| 2026-05-01 14:33 | 46.67337 | 15.65666 | 25368 ft | 413 kts | 35° |
| 2026-05-01 14:33 | 46.68908 | 15.67228 | 25551 ft | 414 kts | 35° |
| 2026-05-01 14:33 | 46.71293 | 15.69602 | 25806 ft | 416 kts | 35° |
| 2026-05-01 14:34 | 46.73684 | 15.71983 | 26052 ft | 417 kts | 35° |
| 2026-05-01 14:34 | 46.76082 | 15.74373 | 26284 ft | 418 kts | 35° |
| 2026-05-01 14:34 | 46.78490 | 15.76780 | 26510 ft | 419 kts | 35° |
| 2026-05-01 14:34 | 46.81687 | 15.79978 | 26776 ft | 421 kts | 35° |
| 2026-05-01 14:35 | 46.83324 | 15.81619 | 26939 ft | 421 kts | 35° |
| 2026-05-01 14:35 | 46.85712 | 15.84012 | 27227 ft | 420 kts | 35° |
| 2026-05-01 14:35 | 46.88109 | 15.86413 | 27510 ft | 419 kts | 35° |
| 2026-05-01 14:35 | 46.90528 | 15.88836 | 27790 ft | 418 kts | 35° |
| 2026-05-01 14:36 | 46.92927 | 15.91247 | 28094 ft | 417 kts | 35° |
| 2026-05-01 14:36 | 46.95314 | 15.93652 | 28391 ft | 416 kts | 35° |
| 2026-05-01 14:36 | 46.97703 | 15.96060 | 28647 ft | 416 kts | 35° |
| 2026-05-01 14:36 | 47.00090 | 15.98468 | 28918 ft | 415 kts | 35° |
| 2026-05-01 14:37 | 47.02442 | 16.00842 | 29207 ft | 414 kts | 35° |
| 2026-05-01 14:37 | 47.04813 | 16.03237 | 29489 ft | 413 kts | 35° |
| 2026-05-01 14:37 | 47.07173 | 16.05622 | 29773 ft | 412 kts | 35° |
| 2026-05-01 14:37 | 47.09547 | 16.08020 | 30048 ft | 411 kts | 35° |
| 2026-05-01 14:38 | 47.11908 | 16.10407 | 30321 ft | 411 kts | 35° |
| 2026-05-01 14:38 | 47.14254 | 16.12786 | 30563 ft | 410 kts | 35° |
| 2026-05-01 14:38 | 47.16558 | 16.15126 | 30799 ft | 409 kts | 35° |
| 2026-05-01 14:38 | 47.18936 | 16.17542 | 31033 ft | 408 kts | 35° |
| 2026-05-01 14:39 | 47.21275 | 16.19923 | 31269 ft | 407 kts | 35° |
| 2026-05-01 14:39 | 47.23576 | 16.22269 | 31516 ft | 407 kts | 35° |
| 2026-05-01 14:39 | 47.25903 | 16.24640 | 31754 ft | 406 kts | 35° |
| 2026-05-01 14:39 | 47.28221 | 16.27007 | 31975 ft | 405 kts | 35° |
| 2026-05-01 14:40 | 47.30538 | 16.29374 | 32225 ft | 404 kts | 35° |
| 2026-05-01 14:40 | 47.32848 | 16.31738 | 32462 ft | 404 kts | 35° |
| 2026-05-01 14:40 | 47.35154 | 16.34101 | 32682 ft | 403 kts | 35° |
| 2026-05-01 14:40 | 47.37456 | 16.36464 | 32931 ft | 402 kts | 35° |
| 2026-05-01 14:41 | 47.39721 | 16.38794 | 33169 ft | 401 kts | 35° |
| 2026-05-01 14:41 | 47.42011 | 16.41149 | 33415 ft | 401 kts | 35° |
| 2026-05-01 14:41 | 47.44300 | 16.43504 | 33670 ft | 400 kts | 35° |
| 2026-05-01 14:41 | 47.46579 | 16.45853 | 33898 ft | 399 kts | 35° |
| 2026-05-01 14:42 | 47.48853 | 16.48199 | 34133 ft | 399 kts | 35° |
| 2026-05-01 14:42 | 47.51130 | 16.50548 | 34365 ft | 398 kts | 35° |
| 2026-05-01 14:42 | 47.53401 | 16.52892 | 34547 ft | 398 kts | 35° |
| 2026-05-01 14:42 | 47.55674 | 16.55237 | 34729 ft | 397 kts | 35° |
| 2026-05-01 14:43 | 47.57942 | 16.57583 | 34903 ft | 397 kts | 35° |
| 2026-05-01 14:43 | 47.60209 | 16.59934 | 35068 ft | 398 kts | 35° |
| 2026-05-01 14:43 | 47.62447 | 16.62259 | 35226 ft | 397 kts | 35° |
| 2026-05-01 14:43 | 47.64717 | 16.64617 | 35335 ft | 399 kts | 35° |
| 2026-05-01 14:44 | 47.67008 | 16.67000 | 35356 ft | 403 kts | 35° |
| 2026-05-01 14:44 | 47.73978 | 16.74268 | 35345 ft | 412 kts | 35° |
| 2026-05-01 14:45 | 47.81032 | 16.81637 | 35353 ft | 415 kts | 35° |
| 2026-05-01 14:46 | 47.85765 | 16.86601 | 35345 ft | 415 kts | 35° |
| 2026-05-01 14:46 | 47.92222 | 16.93395 | 35356 ft | 415 kts | 35° |
| 2026-05-01 14:47 | 47.96849 | 16.98277 | 35347 ft | 415 kts | 35° |
| 2026-05-01 14:48 | 48.03929 | 17.05761 | 35329 ft | 415 kts | 35° |
| 2026-05-01 14:48 | 48.10472 | 17.14266 | 35332 ft | 416 kts | 43° |
| 2026-05-01 14:49 | 48.18667 | 17.26464 | 35343 ft | 416 kts | 43° |
| 2026-05-01 14:50 | 48.26880 | 17.38752 | 35337 ft | 417 kts | 44° |
| 2026-05-01 14:51 | 48.33027 | 17.47973 | 35334 ft | 417 kts | 44° |
| 2026-05-01 14:52 | 48.39187 | 17.57258 | 35332 ft | 418 kts | 44° |
| 2026-05-01 14:53 | 48.45343 | 17.66571 | 35337 ft | 419 kts | 44° |
| 2026-05-01 14:53 | 48.49452 | 17.72809 | 35349 ft | 419 kts | 44° |
| 2026-05-01 14:54 | 48.53557 | 17.79059 | 35345 ft | 419 kts | 44° |
| 2026-05-01 14:54 | 48.57659 | 17.85320 | 35352 ft | 419 kts | 44° |
| 2026-05-01 14:55 | 48.61740 | 17.91549 | 35350 ft | 419 kts | 44° |
| 2026-05-01 14:55 | 48.65837 | 17.97819 | 35356 ft | 419 kts | 44° |
| 2026-05-01 14:56 | 48.69927 | 18.04095 | 35353 ft | 418 kts | 44° |
| 2026-05-01 14:56 | 48.74012 | 18.10385 | 35341 ft | 418 kts | 44° |
| 2026-05-01 14:57 | 48.78068 | 18.16639 | 35339 ft | 418 kts | 44° |
| 2026-05-01 14:57 | 48.84167 | 18.26102 | 35327 ft | 417 kts | 44° |
| 2026-05-01 14:58 | 48.88218 | 18.32399 | 35326 ft | 417 kts | 44° |
| 2026-05-01 14:58 | 48.92626 | 18.38080 | 35323 ft | 415 kts | 36° |
| 2026-05-01 14:59 | 48.97244 | 18.43303 | 35327 ft | 415 kts | 36° |
| 2026-05-01 14:59 | 49.01886 | 18.48584 | 35335 ft | 416 kts | 36° |
| 2026-05-01 15:00 | 49.08826 | 18.56526 | 35343 ft | 415 kts | 36° |
| 2026-05-01 15:01 | 49.13454 | 18.61825 | 35348 ft | 415 kts | 36° |
| 2026-05-01 15:01 | 49.18046 | 18.67091 | 35348 ft | 415 kts | 36° |
| 2026-05-01 15:02 | 49.22666 | 18.72397 | 35346 ft | 415 kts | 36° |
| 2026-05-01 15:02 | 49.27279 | 18.77723 | 35343 ft | 415 kts | 37° |
| 2026-05-01 15:03 | 49.31890 | 18.83060 | 35338 ft | 415 kts | 36° |
| 2026-05-01 15:03 | 49.36460 | 18.88353 | 35328 ft | 415 kts | 36° |
| 2026-05-01 15:04 | 49.41096 | 18.93730 | 35326 ft | 414 kts | 36° |
| 2026-05-01 15:04 | 49.45676 | 18.99033 | 35316 ft | 414 kts | 35° |
| 2026-05-01 15:05 | 49.50440 | 19.04026 | 35317 ft | 414 kts | 33° |
| 2026-05-01 15:05 | 49.55271 | 19.08846 | 35318 ft | 414 kts | 33° |
| 2026-05-01 15:06 | 49.60083 | 19.13732 | 35320 ft | 414 kts | 33° |
| 2026-05-01 15:06 | 49.64859 | 19.18692 | 35316 ft | 414 kts | 34° |
| 2026-05-01 15:07 | 49.69593 | 19.23641 | 35310 ft | 414 kts | 34° |
| 2026-05-01 15:07 | 49.74369 | 19.28622 | 35312 ft | 414 kts | 33° |
| 2026-05-01 15:08 | 49.79142 | 19.33599 | 35309 ft | 414 kts | 34° |
| 2026-05-01 15:08 | 49.83911 | 19.38597 | 35305 ft | 414 kts | 34° |
| 2026-05-01 15:09 | 49.88652 | 19.43572 | 35305 ft | 413 kts | 34° |
| 2026-05-01 15:09 | 49.93425 | 19.48589 | 35305 ft | 413 kts | 34° |
| 2026-05-01 15:10 | 49.98193 | 19.53613 | 35304 ft | 413 kts | 34° |
| 2026-05-01 15:10 | 50.05295 | 19.61128 | 35309 ft | 413 kts | 34° |
| 2026-05-01 15:11 | 50.12420 | 19.68699 | 35311 ft | 413 kts | 34° |
| 2026-05-01 15:12 | 50.17164 | 19.73749 | 35313 ft | 413 kts | 34° |
| 2026-05-01 15:12 | 50.24269 | 19.81353 | 35307 ft | 412 kts | 34° |
| 2026-05-01 15:14 | 50.36092 | 19.94026 | 35298 ft | 412 kts | 34° |
| 2026-05-01 15:14 | 50.43160 | 20.01666 | 35294 ft | 412 kts | 34° |
| 2026-05-01 15:15 | 50.52599 | 20.11870 | 35294 ft | 412 kts | 34° |
| 2026-05-01 15:16 | 50.62046 | 20.22177 | 35293 ft | 412 kts | 34° |
| 2026-05-01 15:18 | 50.74118 | 20.34303 | 35296 ft | 412 kts | 31° |
| 2026-05-01 15:19 | 50.83945 | 20.43722 | 35290 ft | 413 kts | 32° |
| 2026-05-01 15:19 | 50.91248 | 20.50877 | 35294 ft | 413 kts | 32° |
| 2026-05-01 15:20 | 50.98581 | 20.58065 | 35300 ft | 413 kts | 32° |
| 2026-05-01 15:21 | 51.03469 | 20.62870 | 35297 ft | 413 kts | 32° |
| 2026-05-01 15:21 | 51.08324 | 20.67657 | 35296 ft | 413 kts | 32° |
| 2026-05-01 15:22 | 51.15654 | 20.74892 | 35299 ft | 413 kts | 32° |
| 2026-05-01 15:22 | 51.20541 | 20.79749 | 35296 ft | 413 kts | 32° |
| 2026-05-01 15:23 | 51.25394 | 20.84577 | 35294 ft | 413 kts | 32° |
| 2026-05-01 15:23 | 51.30278 | 20.89443 | 35295 ft | 413 kts | 32° |
| 2026-05-01 15:24 | 51.35131 | 20.94287 | 35293 ft | 413 kts | 32° |
| 2026-05-01 15:24 | 51.39187 | 20.98348 | 35293 ft | 413 kts | 32° |
| 2026-05-01 15:25 | 51.44059 | 21.03240 | 35293 ft | 413 kts | 32° |
| 2026-05-01 15:25 | 51.48924 | 21.08144 | 35289 ft | 413 kts | 32° |
| 2026-05-01 15:26 | 51.53788 | 21.13046 | 35289 ft | 413 kts | 32° |
| 2026-05-01 15:26 | 51.58663 | 21.17966 | 35294 ft | 413 kts | 32° |
| 2026-05-01 15:27 | 51.63491 | 21.22864 | 35296 ft | 413 kts | 32° |
| 2026-05-01 15:28 | 51.70765 | 21.30290 | 35295 ft | 412 kts | 32° |
| 2026-05-01 15:28 | 51.75608 | 21.35241 | 35299 ft | 412 kts | 32° |
| 2026-05-01 15:29 | 51.82866 | 21.42673 | 35295 ft | 411 kts | 32° |
| 2026-05-01 15:30 | 51.92509 | 21.52580 | 35294 ft | 411 kts | 32° |
| 2026-05-01 15:31 | 52.06991 | 21.67564 | 35301 ft | 412 kts | 32° |
| 2026-05-01 15:32 | 52.16621 | 21.77609 | 35301 ft | 412 kts | 32° |
| 2026-05-01 15:34 | 52.31086 | 21.92790 | 35302 ft | 412 kts | 33° |